Time;durP1;ratioP1;P1;durP2;ratioP2;P2;SDS_P1;SDS_P2;PMS_P1;PMS_P2;Temp;Humidity;BMP_temperature;BMP_pressure;BME280_temperature;BME280_humidity;BME280_pressure;Samples;Min_cycle;Max_cycle;Signal;HPM_P1;HPM_P2
2023/01/26 00:01:36;;;;;;;61.33;18.80;;;;;;;-0.51;100.00;102461.53;4952488;28;20059;-77
2023/01/26 00:04:03;;;;;;;56.80;19.88;;;;;;;-0.52;100.00;102462.28;4956029;28;20047;-77
2023/01/26 00:06:31;;;;;;;49.10;18.42;;;;;;;-0.51;100.00;102460.59;4931500;28;24155;-77
2023/01/26 00:08:59;;;;;;;50.28;18.98;;;;;;;-0.53;100.00;102457.91;4953384;28;20043;-77
2023/01/26 00:11:28;;;;;;;47.60;18.20;;;;;;;-0.55;100.00;102451.69;4955502;28;20062;-77
2023/01/26 00:13:57;;;;;;;42.45;16.75;;;;;;;-0.57;100.00;102455.88;4934721;29;20413;-77
2023/01/26 00:16:26;;;;;;;46.80;18.23;;;;;;;-0.57;100.00;102458.44;4926195;29;20043;-76
2023/01/26 00:18:53;;;;;;;48.08;17.52;;;;;;;-0.55;100.00;102461.16;4941485;29;20055;-76
2023/01/26 00:21:22;;;;;;;46.45;19.02;;;;;;;-0.56;100.00;102460.28;4939354;29;20579;-76
2023/01/26 00:23:51;;;;;;;52.60;20.10;;;;;;;-0.56;100.00;102461.97;4937825;28;20045;-77
2023/01/26 00:26:23;;;;;;;45.65;17.02;;;;;;;-0.57;100.00;102449.78;4939830;28;20058;-76
2023/01/26 00:28:52;;;;;;;40.60;16.65;;;;;;;-0.60;100.00;102459.13;4942206;29;20050;-76
2023/01/26 00:31:22;;;;;;;46.92;17.48;;;;;;;-0.58;100.00;102451.50;4916503;28;20146;-77
2023/01/26 00:33:53;;;;;;;47.45;16.65;;;;;;;-0.59;100.00;102452.25;4926381;29;20046;-77
2023/01/26 00:36:23;;;;;;;45.65;16.35;;;;;;;-0.61;100.00;102449.56;4949525;29;20820;-77
2023/01/26 00:38:53;;;;;;;43.10;17.15;;;;;;;-0.62;100.00;102441.69;4902565;28;20047;-77
2023/01/26 00:44:09;;;;;;;46.17;15.43;;;;;;;-0.61;100.00;102438.31;4938468;28;20303;-78
2023/01/26 00:46:37;;;;;;;46.60;15.95;;;;;;;-0.60;100.00;102440.13;4898408;29;20413;-78
2023/01/26 00:49:06;;;;;;;44.67;16.42;;;;;;;-0.61;100.00;102433.13;4906815;29;20044;-77
2023/01/26 00:51:33;;;;;;;49.15;16.95;;;;;;;-0.58;100.00;102435.06;4929306;29;20075;-77
2023/01/26 00:54:03;;;;;;;33.90;14.82;;;;;;;-0.57;100.00;102429.97;4915196;29;20044;-78
2023/01/26 00:56:30;;;;;;;48.55;16.85;;;;;;;-0.55;100.00;102423.22;4950004;29;20054;-77
2023/01/26 00:58:58;;;;;;;37.38;15.18;;;;;;;-0.56;100.00;102418.84;4927594;29;20575;-77
2023/01/26 01:01:25;;;;;;;41.67;15.15;;;;;;;-0.54;100.00;102429.31;4914089;29;20047;-77
2023/01/26 01:03:53;;;;;;;48.58;16.33;;;;;;;-0.55;100.00;102428.38;4948638;29;20047;-76
2023/01/26 01:06:20;;;;;;;43.22;15.65;;;;;;;-0.56;100.00;102429.19;4933232;29;20051;-77
2023/01/26 01:08:50;;;;;;;43.42;14.50;;;;;;;-0.56;100.00;102433.47;4918916;28;20058;-76
2023/01/26 01:11:17;;;;;;;43.92;14.77;;;;;;;-0.56;100.00;102430.91;4937634;29;20063;-77
2023/01/26 01:13:44;;;;;;;36.33;14.60;;;;;;;-0.56;100.00;102428.31;4921624;29;20040;-77
2023/01/26 01:16:15;;;;;;;41.05;15.30;;;;;;;-0.56;100.00;102429.19;4905510;28;20062;-76
2023/01/26 01:18:43;;;;;;;50.50;15.27;;;;;;;-0.56;100.00;102431.78;4942919;29;20063;-76
2023/01/26 01:21:14;;;;;;;34.70;13.60;;;;;;;-0.54;100.00;102429.31;4939935;29;20043;-78
2023/01/26 01:23:42;;;;;;;42.95;14.68;;;;;;;-0.55;100.00;102433.56;4937232;29;20112;-77
2023/01/26 01:26:10;;;;;;;39.85;14.98;;;;;;;-0.57;100.00;102435.16;4941123;28;20058;-76
2023/01/26 01:28:37;;;;;;;36.45;13.80;;;;;;;-0.59;100.00;102434.13;4944078;28;20058;-77
2023/01/26 01:31:07;;;;;;;37.47;14.18;;;;;;;-0.58;100.00;102438.53;4908009;29;20865;-76
2023/01/26 01:33:37;;;;;;;32.65;12.85;;;;;;;-0.58;100.00;102438.53;4942151;29;20047;-77
2023/01/26 01:36:09;;;;;;;34.10;13.13;;;;;;;-0.60;100.00;102430.66;4914140;29;20051;-78
2023/01/26 01:38:36;;;;;;;34.38;12.57;;;;;;;-0.60;100.00;102440.13;4927387;29;20055;-77
2023/01/26 01:41:04;;;;;;;32.75;14.25;;;;;;;-0.59;100.00;102447.09;4920387;29;20062;-77
2023/01/26 01:43:32;;;;;;;36.60;12.50;;;;;;;-0.59;100.00;102441.91;4927376;29;20051;-77
2023/01/26 01:46:01;;;;;;;33.10;12.40;;;;;;;-0.60;100.00;102435.84;4943728;29;20059;-76
2023/01/26 01:48:42;;;;;;;37.58;14.88;;;;;;;-0.60;100.00;102428.06;4927534;28;20062;-76
2023/01/26 01:51:36;;;;;;;38.10;14.00;;;;;;;-0.59;100.00;102434.13;4942868;29;20062;-76
2023/01/26 01:54:09;;;;;;;28.58;12.35;;;;;;;-0.58;100.00;102433.38;4944506;29;20043;-77
2023/01/26 01:56:41;;;;;;;31.25;12.57;;;;;;;-0.58;100.00;102435.97;4926795;28;20058;-77
2023/01/26 01:59:11;;;;;;;42.95;15.05;;;;;;;-0.56;100.00;102431.78;4917187;28;20056;-78
2023/01/26 02:01:40;;;;;;;34.03;12.25;;;;;;;-0.55;100.00;102437.84;4919874;29;20051;-76
2023/01/26 02:04:08;;;;;;;37.40;13.68;;;;;;;-0.55;100.00;102433.56;4910116;29;20068;-76
2023/01/26 02:06:45;;;;;;;38.53;14.35;;;;;;;-0.54;100.00;102427.63;4946080;29;20055;-78
2023/01/26 02:10:17;;;;;;;46.28;14.82;;;;;;;-0.53;100.00;102431.09;4948626;29;20047;-77
2023/01/26 02:12:06;;;;;;;42.08;14.52;;;;;;;-0.52;100.00;102425.16;4944534;28;20054;-77
2023/01/26 02:14:33;;;;;;;43.03;14.50;;;;;;;-0.51;100.00;102438.22;4973772;28;20054;-77
2023/01/26 02:17:00;;;;;;;39.45;13.60;;;;;;;-0.51;100.00;102433.03;4915189;29;20505;-77
2023/01/26 02:19:40;;;;;;;49.92;14.57;;;;;;;-0.49;100.00;102428.88;4924107;29;20058;-77
2023/01/26 02:22:20;;;;;;;40.67;14.77;;;;;;;-0.47;100.00;102419.50;4941180;28;20047;-77
2023/01/26 02:24:55;;;;;;;44.90;14.20;;;;;;;-0.48;100.00;102417.69;4955928;28;20040;-77
2023/01/26 02:27:23;;;;;;;38.28;14.27;;;;;;;-0.49;100.00;102418.50;4927692;28;20497;-78
2023/01/26 02:29:53;;;;;;;43.08;15.63;;;;;;;-0.47;100.00;102426.41;4955379;28;20064;-77
2023/01/26 02:32:20;;;;;;;44.53;15.55;;;;;;;-0.46;100.00;102418.72;4935544;29;20066;-76
2023/01/26 02:34:54;;;;;;;48.85;15.73;;;;;;;-0.42;100.00;102419.84;4915959;29;20481;-77
2023/01/26 02:37:22;;;;;;;40.00;15.35;;;;;;;-0.42;100.00;102418.19;4938064;29;20685;-77
2023/01/26 02:40:06;;;;;;;43.92;15.68;;;;;;;-0.40;100.00;102423.44;4908037;29;20058;-77
2023/01/26 02:42:40;;;;;;;46.03;16.52;;;;;;;-0.38;100.00;102420.97;4914249;29;20078;-77
2023/01/26 02:45:14;;;;;;;46.13;14.60;;;;;;;-0.38;100.00;102419.25;4927530;28;20112;-77
2023/01/26 02:47:44;;;;;;;46.70;16.10;;;;;;;-0.37;100.00;102420.19;4942171;28;20070;-77
2023/01/26 02:50:12;;;;;;;46.08;16.02;;;;;;;-0.36;100.00;102411.59;4905998;29;20070;-77
2023/01/26 02:52:42;;;;;;;45.58;15.93;;;;;;;-0.34;100.00;102413.53;4939729;29;20425;-78
2023/01/26 02:55:23;;;;;;;53.35;16.10;;;;;;;-0.32;100.00;102424.00;4943942;29;20054;-77
2023/01/26 02:57:59;;;;;;;52.70;16.30;;;;;;;-0.33;100.00;102415.31;4921209;29;20059;-77
2023/01/26 03:00:35;;;;;;;47.80;16.52;;;;;;;-0.32;100.00;102411.97;4963732;28;20074;-78
2023/01/26 03:03:12;;;;;;;49.67;16.52;;;;;;;-0.31;100.00;102416.34;4948702;28;20055;-77
2023/01/26 03:05:40;;;;;;;42.63;15.52;;;;;;;-0.29;100.00;102412.16;4949246;28;20066;-77
2023/01/26 03:08:07;;;;;;;51.95;15.55;;;;;;;-0.29;100.00;102414.75;4936202;28;20050;-77
2023/01/26 03:10:36;;;;;;;45.20;15.73;;;;;;;-0.27;100.00;102410.59;4958044;28;20057;-78
2023/01/26 03:13:06;;;;;;;43.15;15.15;;;;;;;-0.26;100.00;102411.50;4948835;28;20420;-77
2023/01/26 03:15:42;;;;;;;47.35;15.90;;;;;;;-0.26;100.00;102420.16;4932075;28;20039;-77
2023/01/26 03:29:22;;;;;;;45.50;16.33;;;;;;;-0.22;100.00;102417.00;4961807;28;20051;-77
2023/01/26 03:31:52;;;;;;;45.50;16.35;;;;;;;-0.18;100.00;102415.53;4935453;28;20051;-77
2023/01/26 03:34:20;;;;;;;40.90;16.02;;;;;;;-0.15;100.00;102409.66;4939777;28;20058;-77
2023/01/26 03:36:48;;;;;;;49.80;15.25;;;;;;;-0.12;100.00;102418.56;4928672;28;20051;-77
2023/01/26 03:56:20;;;;;;;46.95;15.93;;;;;;;-0.10;100.00;102409.19;4945136;29;20055;-77
2023/01/26 03:58:51;;;;;;;57.25;15.35;;;;;;;-0.09;100.00;102405.84;4950137;28;20464;-77
2023/01/26 04:01:27;;;;;;;43.45;14.90;;;;;;;-0.08;100.00;102417.09;4938444;29;20051;-77
2023/01/26 04:09:38;;;;;;;46.38;15.07;;;;;;;-0.07;100.00;102405.94;4945662;29;20055;-77
2023/01/26 04:12:10;;;;;;;52.03;14.80;;;;;;;-0.08;100.00;102411.91;4936662;28;20051;-77
2023/01/26 04:23:05;;;;;;;35.80;14.13;;;;;;;-0.06;100.00;102400.88;4903141;28;20509;-77
2023/01/26 04:25:34;;;;;;;51.15;15.15;;;;;;;-0.04;100.00;102400.97;4949651;28;20059;-77
2023/01/26 04:28:02;;;;;;;37.88;12.90;;;;;;;-0.03;100.00;102395.91;4949543;28;20055;-77
2023/01/26 04:30:29;;;;;;;51.28;14.40;;;;;;;-0.03;100.00;102398.50;4948843;28;20051;-77
2023/01/26 04:32:58;;;;;;;36.58;13.77;;;;;;;-0.01;100.00;102394.31;4936514;28;20043;-77
2023/01/26 04:35:25;;;;;;;38.00;13.25;;;;;;;0.01;100.00;102396.13;4952985;28;20055;-77
2023/01/26 04:37:53;;;;;;;40.50;14.63;;;;;;;0.02;100.00;102392.72;4937354;28;20054;-77
2023/01/26 04:40:22;;;;;;;43.42;15.35;;;;;;;0.02;100.00;102385.88;4927454;28;20051;-77
2023/01/26 04:42:49;;;;;;;55.30;15.15;;;;;;;0.03;100.00;102391.94;4953019;28;20094;-77
2023/01/26 04:45:16;;;;;;;33.03;14.20;;;;;;;0.05;100.00;102388.66;4927870;29;20047;-77
2023/01/26 04:47:44;;;;;;;44.08;15.60;;;;;;;0.09;100.00;102388.06;4931405;28;20051;-77
2023/01/26 04:50:14;;;;;;;36.75;14.15;;;;;;;0.12;100.00;102379.63;4937964;28;20062;-76
2023/01/26 04:52:43;;;;;;;33.80;13.50;;;;;;;0.14;100.00;102380.63;4927929;28;20077;-77
2023/01/26 04:55:11;;;;;;;53.72;16.15;;;;;;;0.16;100.00;102384.25;4932314;28;20051;-77
2023/01/26 04:57:41;;;;;;;56.30;16.75;;;;;;;0.19;100.00;102382.75;4932532;28;20046;-78
2023/01/26 05:00:10;;;;;;;33.58;14.32;;;;;;;0.21;100.00;102384.53;4947109;28;20055;-77
2023/01/26 05:02:39;;;;;;;43.33;15.00;;;;;;;0.21;100.00;102380.28;4928264;28;20512;-77
2023/01/26 05:05:09;;;;;;;42.15;15.23;;;;;;;0.19;100.00;102376.69;4932664;28;20047;-77
2023/01/26 05:07:37;;;;;;;69.30;16.45;;;;;;;0.18;100.00;102375.75;4941512;28;20058;-77
2023/01/26 05:10:05;;;;;;;38.58;13.98;;;;;;;0.18;100.00;102377.47;4937620;28;20050;-76
2023/01/26 05:12:41;;;;;;;43.08;15.43;;;;;;;0.21;100.00;102384.53;4949659;28;20081;-76
2023/01/26 05:15:27;;;;;;;71.93;17.58;;;;;;;0.23;100.00;102382.97;4951939;28;20050;-78
2023/01/26 05:18:06;;;;;;;48.38;15.38;;;;;;;0.24;100.00;102383.06;4948984;29;20055;-77
2023/01/26 05:20:52;;;;;;;49.38;16.20;;;;;;;0.25;100.00;102376.22;4948846;28;20058;-78
2023/01/26 05:23:25;;;;;;;58.25;16.25;;;;;;;0.26;100.00;102370.22;4918980;28;20827;-77
2023/01/26 05:26:25;;;;;;;43.47;15.63;;;;;;;0.26;100.00;102380.59;4903987;28;20536;-77
2023/01/26 05:29:03;;;;;;;41.20;16.35;;;;;;;0.27;100.00;102374.63;4949941;28;20428;-77
2023/01/26 05:31:31;;;;;;;60.00;18.23;;;;;;;0.29;100.00;102368.75;4960649;28;20053;-77
2023/01/26 05:33:59;;;;;;;66.95;18.02;;;;;;;0.30;100.00;102365.38;4936832;28;20061;-77
2023/01/26 05:36:26;;;;;;;35.90;14.23;;;;;;;0.32;100.00;102375.81;4941011;28;20039;-77
2023/01/26 05:38:54;;;;;;;46.50;15.13;;;;;;;0.34;100.00;102374.22;4914835;28;20814;-77
2023/01/26 05:41:26;;;;;;;68.45;18.50;;;;;;;0.36;100.00;102376.16;4946169;28;20058;-77
2023/01/26 05:44:09;;;;;;;48.03;16.13;;;;;;;0.39;100.00;102391.91;4944376;28;20047;-76
2023/01/26 05:46:50;;;;;;;53.75;16.75;;;;;;;0.39;100.00;102386.72;4948257;28;20066;-77
2023/01/26 05:49:18;;;;;;;45.13;15.55;;;;;;;0.42;100.00;102382.53;4930341;28;20051;-77
2023/01/26 05:51:46;;;;;;;47.17;16.30;;;;;;;0.43;100.00;102398.22;4943401;28;20070;-77
2023/01/26 05:54:14;;;;;;;41.17;14.40;;;;;;;0.45;100.00;102395.72;4914652;28;20047;-77
2023/01/26 05:56:41;;;;;;;38.67;14.07;;;;;;;0.46;100.00;102392.34;4950230;28;20051;-77
2023/01/26 05:59:09;;;;;;;36.92;13.80;;;;;;;0.48;100.00;102401.13;4923868;28;20054;-77
2023/01/26 06:01:38;;;;;;;46.97;15.90;;;;;;;0.48;100.00;102395.94;4947148;28;20408;-77
2023/01/26 06:04:07;;;;;;;;;;;;;;;0.49;100.00;102413.28;4906956;28;20050;-77
2023/01/26 06:06:41;;;;;;;36.35;13.48;;;;;;;0.49;100.00;102411.63;4942152;28;19925;-77
2023/01/26 06:09:35;;;;;;;43.05;15.02;;;;;;;0.49;100.00;102406.44;4912881;28;20059;-76
2023/01/26 06:12:16;;;;;;;34.08;12.82;;;;;;;0.49;100.00;102409.03;4920287;28;20054;-77
2023/01/26 06:14:59;;;;;;;;;;;;;;;0.48;100.00;102411.50;4945424;28;20054;-78
2023/01/26 06:17:34;;;;;;;36.65;12.20;;;;;;;0.48;100.00;102406.31;4947779;29;19944;-77
2023/01/26 06:20:06;;;;;;;44.87;14.40;;;;;;;0.48;100.00;102409.81;4939505;28;20054;-77
2023/01/26 06:22:39;;;;;;;48.67;14.57;;;;;;;0.47;100.00;102409.69;4966071;28;20042;-77
2023/01/26 06:25:07;;;;;;;36.33;12.40;;;;;;;0.48;100.00;102403.72;4881032;28;20057;-77
2023/01/26 06:27:34;;;;;;;38.63;12.68;;;;;;;0.53;100.00;102399.75;4920668;28;20050;-76
2023/01/26 06:30:10;;;;;;;40.28;9.95;;;;;;;0.65;100.00;102408.38;4933263;28;20051;-77
2023/01/26 06:32:39;;;;;;;27.98;5.93;;;;;;;0.90;100.00;102407.44;4944175;28;20059;-79
2023/01/26 06:35:07;;;;;;;38.63;6.32;;;;;;;1.27;100.00;102400.41;4932330;28;20059;-79
2023/01/26 06:37:35;;;;;;;41.38;6.00;;;;;;;1.61;100.00;102402.63;4950177;28;20050;-77
2023/01/26 06:40:04;;;;;;;40.35;5.18;;;;;;;2.00;100.00;102400.75;4907194;28;20420;-77
2023/01/26 06:42:33;;;;;;;44.03;6.25;;;;;;;2.31;100.00;102406.16;4921720;28;20495;-77
2023/01/26 06:45:01;;;;;;;45.55;5.32;;;;;;;2.54;100.00;102414.47;4938188;28;20680;-78
2023/01/26 06:48:00;;;;;;;47.30;6.15;;;;;;;2.72;100.00;102414.69;4951864;28;20050;-78
2023/01/26 06:50:32;;;;;;;32.83;5.80;;;;;;;2.82;100.00;102416.16;4944253;28;20881;-77
2023/01/26 06:53:03;;;;;;;46.85;5.93;;;;;;;2.90;100.00;102413.19;4924604;29;20055;-77
2023/01/26 06:55:44;;;;;;;45.97;6.28;;;;;;;3.00;100.00;102422.44;4904814;28;20597;-77
2023/01/26 06:58:33;;;;;;;40.78;6.10;;;;;;;3.06;100.00;102411.47;4936493;28;20417;-77
2023/01/26 07:01:21;;;;;;;46.88;5.57;;;;;;;3.08;100.00;102426.41;4950227;28;20110;-78
2023/01/26 07:03:50;;;;;;;46.85;5.50;;;;;;;3.12;100.00;102425.78;4946585;28;20563;-78
2023/01/26 07:06:18;;;;;;;45.63;6.00;;;;;;;3.12;100.00;102423.16;4939066;28;20416;-78
2023/01/26 07:08:45;;;;;;;41.50;5.30;;;;;;;3.13;100.00;102424.94;4932738;29;20504;-77
2023/01/26 07:11:15;;;;;;;43.22;5.15;;;;;;;3.11;100.00;102434.38;4931630;28;20039;-77
2023/01/26 07:13:43;;;;;;;60.45;7.82;;;;;;;3.09;100.00;102436.00;4923715;28;20058;-79
2023/01/26 07:16:13;;;;;;;52.42;5.97;;;;;;;3.07;100.00;102429.81;4923456;28;20055;-78
2023/01/26 07:18:41;;;;;;;46.78;6.40;;;;;;;3.06;100.00;102441.06;4953988;28;20053;-78
2023/01/26 07:21:11;;;;;;;52.60;6.40;;;;;;;3.04;100.00;102445.25;4943418;28;20054;-78
2023/01/26 07:23:41;;;;;;;50.75;5.05;;;;;;;3.00;100.00;102445.88;4931852;28;20416;-77
2023/01/26 07:26:14;;;;;;;54.08;6.55;;;;;;;2.97;100.00;102453.53;4927467;28;20055;-77
2023/01/26 07:28:41;;;;;;;48.00;5.88;;;;;;;2.95;100.00;102456.81;4941331;28;20420;-77
2023/01/26 07:31:10;;;;;;;45.95;5.72;;;;;;;2.92;100.00;102467.97;4907126;28;20440;-76
2023/01/26 07:33:38;;;;;;;41.42;6.05;;;;;;;2.91;100.00;102471.38;4945095;28;20055;-77
2023/01/26 07:36:09;;;;;;;45.67;5.47;;;;;;;2.89;100.00;102473.91;4947567;28;20051;-77
2023/01/26 07:38:37;;;;;;;36.58;5.32;;;;;;;2.88;100.00;102481.63;4947822;28;20047;-78
2023/01/26 07:41:08;;;;;;;42.95;5.75;;;;;;;2.87;100.00;102472.91;4921592;28;20051;-77
2023/01/26 07:43:37;;;;;;;55.60;5.68;;;;;;;2.86;100.00;102480.63;4938901;28;20062;-77
2023/01/26 07:46:09;;;;;;;53.83;5.82;;;;;;;2.85;100.00;102481.41;4914183;28;20058;-77
2023/01/26 07:48:37;;;;;;;36.42;4.47;;;;;;;2.85;100.00;102484.00;4954278;28;20066;-77
2023/01/26 07:51:08;;;;;;;56.05;5.50;;;;;;;2.84;100.00;102479.63;4932274;28;20043;-77
2023/01/26 07:53:38;;;;;;;41.55;5.60;;;;;;;2.84;100.00;102475.31;4958139;28;20043;-77
2023/01/26 07:56:14;;;;;;;36.78;4.72;;;;;;;2.84;100.00;102488.34;4935161;28;20405;-76
2023/01/26 07:58:42;;;;;;;35.70;5.47;;;;;;;2.86;100.00;102485.84;4933331;28;20072;-77
2023/01/26 08:01:13;;;;;;;48.03;6.63;;;;;;;2.87;100.00;102488.53;4925805;28;20055;-76
2023/01/26 08:03:41;;;;;;;47.97;5.45;;;;;;;2.92;100.00;102486.19;4945573;28;20050;-77
2023/01/26 08:06:08;;;;;;;30.27;4.00;;;;;;;2.95;100.00;102486.38;4933495;28;20058;-79
2023/01/26 08:08:41;;;;;;;45.67;5.13;;;;;;;2.97;100.00;102489.97;4932027;28;20061;-76
2023/01/26 08:11:10;;;;;;;44.83;5.00;;;;;;;2.99;100.00;102488.38;4930657;28;20058;-78
2023/01/26 08:13:37;;;;;;;30.88;5.35;;;;;;;2.97;100.00;102489.97;4928022;28;20050;-77
2023/01/26 08:16:11;;;;;;;39.58;5.00;;;;;;;2.97;100.00;102496.88;4916207;28;20058;-79
2023/01/26 08:18:43;;;;;;;39.17;5.53;;;;;;;2.95;100.00;102491.59;4955814;28;20496;-78
2023/01/26 08:21:11;;;;;;;29.00;5.55;;;;;;;2.93;100.00;102495.81;4945179;28;20057;-77
2023/01/26 08:23:41;;;;;;;35.83;5.13;;;;;;;2.91;100.00;102495.72;4944490;28;20050;-77
2023/01/26 08:26:12;;;;;;;39.08;6.18;;;;;;;2.91;100.00;102500.00;4925884;28;20401;-77
2023/01/26 08:28:42;;;;;;;38.00;5.18;;;;;;;2.89;100.00;102497.34;4937823;28;20055;-77
2023/01/26 08:31:12;;;;;;;33.95;4.57;;;;;;;2.86;100.00;102499.75;4909467;28;20066;-76
2023/01/26 08:33:41;;;;;;;;;;;;;;;2.84;100.00;102497.84;4960066;28;20051;-77
2023/01/26 08:36:14;;;;;;;46.95;4.32;;;;;;;2.84;100.00;102500.47;4947413;28;20327;-77
2023/01/26 08:38:42;;;;;;;35.05;5.60;;;;;;;2.87;100.00;102503.22;4946565;28;20059;-77
2023/01/26 08:41:10;;;;;;;37.97;4.90;;;;;;;2.89;100.00;102497.34;4932099;28;20059;-79
2023/01/26 08:43:38;;;;;;;31.63;4.43;;;;;;;2.95;100.00;102488.06;4933872;28;20541;-78
2023/01/26 08:46:07;;;;;;;35.05;5.10;;;;;;;3.02;100.00;102483.31;4929255;28;20051;-78
2023/01/26 08:48:36;;;;;;;45.55;4.82;;;;;;;3.10;100.00;102487.31;4916592;28;20070;-78
2023/01/26 08:51:05;;;;;;;44.17;5.35;;;;;;;3.17;100.00;102485.06;4929837;29;20054;-77
2023/01/26 08:53:36;;;;;;;37.50;5.28;;;;;;;3.23;100.00;102498.44;4936879;29;20342;-78
2023/01/26 08:56:06;;;;;;;31.75;4.07;;;;;;;3.31;100.00;102497.22;4929492;29;20048;-78
2023/01/26 08:58:34;;;;;;;38.15;5.43;;;;;;;3.39;100.00;102500.28;4926004;29;20052;-79
2023/01/26 09:01:05;;;;;;;30.98;4.15;;;;;;;3.45;100.00;102496.31;4914702;28;20062;-77
2023/01/26 09:03:34;;;;;;;39.38;5.40;;;;;;;3.54;100.00;102497.66;4904096;29;20056;-78
2023/01/26 09:06:03;;;;;;;34.03;4.43;;;;;;;3.60;100.00;102500.63;4941111;29;20051;-77
2023/01/26 09:08:31;;;;;;;28.75;4.78;;;;;;;3.66;100.00;102495.75;4921286;29;20059;-77
2023/01/26 09:11:04;;;;;;;29.98;4.93;;;;;;;3.73;100.00;102502.25;4917786;29;20501;-79
2023/01/26 09:13:32;;;;;;;43.83;5.82;;;;;;;3.77;100.00;102501.59;4936839;28;20043;-78
2023/01/26 09:16:03;;;;;;;39.95;5.57;;;;;;;3.81;100.00;102499.25;4910449;29;20059;-77
2023/01/26 09:18:30;;;;;;;34.92;4.68;;;;;;;3.88;100.00;102501.38;4920455;29;21425;-77
2023/01/26 09:21:03;;;;;;;34.90;4.72;;;;;;;3.94;100.00;102506.06;4935813;29;20048;-78
2023/01/26 09:23:32;;;;;;;34.80;5.43;;;;;;;4.00;100.00;102502.91;4918308;29;20050;-77
2023/01/26 09:26:00;;;;;;;30.05;5.30;;;;;;;4.07;100.00;102512.88;4930169;28;20035;-77
2023/01/26 09:28:28;;;;;;;30.52;3.95;;;;;;;4.12;100.00;102505.28;4948445;29;20043;-77
2023/01/26 09:30:55;;;;;;;44.30;5.50;;;;;;;4.18;100.00;102511.75;4894116;29;20497;-77
2023/01/26 09:33:24;;;;;;;27.20;3.58;;;;;;;4.23;100.00;102514.63;4870280;29;20571;-77
2023/01/26 09:35:51;;;;;;;31.67;4.22;;;;;;;4.28;100.00;102515.78;4913384;29;20052;-78
2023/01/26 09:38:18;;;;;;;24.80;4.30;;;;;;;4.32;100.00;102502.09;4921374;29;20043;-77
2023/01/26 09:41:32;;;;;;;30.42;5.15;;;;;;;4.40;100.00;102510.34;4906193;29;20058;-77
2023/01/26 09:44:04;;;;;;;36.78;4.95;;;;;;;4.43;100.00;102523.56;4859989;28;20051;-77
2023/01/26 09:46:56;;;;;;;37.33;5.43;;;;;;;4.49;100.00;102522.16;4930141;28;20058;-77
2023/01/26 09:50:10;;;;;;;25.95;4.68;;;;;;;4.57;100.00;102519.09;4920050;28;20045;-76
2023/01/26 09:52:51;;;;;;;23.70;4.10;;;;;;;4.63;100.00;102529.84;4958701;28;20046;-77
2023/01/26 09:55:21;;;;;;;29.30;5.45;;;;;;;4.70;100.00;102537.22;4944187;28;20043;-77
2023/01/26 09:57:55;;;;;;;23.10;3.50;;;;;;;4.76;100.00;102532.31;4956055;28;20050;-77
2023/01/26 10:00:47;;;;;;;21.25;3.90;;;;;;;4.86;100.00;102528.50;4945299;29;20047;-77
2023/01/26 10:03:42;;;;;;;26.55;3.97;;;;;;;4.91;100.00;102521.78;4935319;28;20047;-77
2023/01/26 10:06:30;;;;;;;21.08;3.67;;;;;;;4.95;100.00;102535.91;4939404;28;20047;-76
2023/01/26 10:09:36;;;;;;;21.55;3.92;;;;;;;5.00;100.00;102517.06;4942605;28;20051;-79
2023/01/26 10:12:27;;;;;;;22.30;4.18;;;;;;;5.05;100.00;102525.16;4940334;28;20532;-79
2023/01/26 10:15:03;;;;;;;21.42;4.47;;;;;;;5.12;100.00;102510.69;4939934;28;20074;-78
2023/01/26 10:17:37;;;;;;;17.02;3.67;;;;;;;5.20;100.00;102514.63;4933962;28;20053;-78
2023/01/26 10:20:21;;;;;;;40.58;4.45;;;;;;;5.26;100.00;102507.97;4945059;28;20065;-78
2023/01/26 10:22:56;;;;;;;19.30;4.15;;;;;;;5.33;100.00;102517.03;4950949;28;20054;-77
2023/01/26 10:25:39;;;;;;;27.33;5.10;;;;;;;5.40;100.00;102507.78;4948023;28;20092;-78
2023/01/26 10:28:19;;;;;;;30.63;4.82;;;;;;;5.46;100.00;102514.22;4946504;28;20255;-78
2023/01/26 10:30:48;;;;;;;19.60;3.83;;;;;;;5.52;100.00;102515.34;4952895;28;20041;-77
2023/01/26 10:33:35;;;;;;;22.75;3.92;;;;;;;5.57;100.00;102512.13;4954510;28;20049;-78
2023/01/26 10:36:07;;;;;;;24.90;3.17;;;;;;;5.63;100.00;102516.78;4919097;28;20046;-77
2023/01/26 10:38:36;;;;;;;20.10;3.33;;;;;;;5.69;100.00;102511.88;4961144;28;20492;-77
2023/01/26 10:41:08;;;;;;;28.98;4.05;;;;;;;5.73;100.00;102511.19;4967398;28;20051;-79
2023/01/26 10:43:41;;;;;;;22.77;3.50;;;;;;;5.76;100.00;102518.28;4924245;28;20081;-78
2023/01/26 10:46:36;;;;;;;28.73;4.70;;;;;;;5.81;100.00;102508.97;4962435;28;20059;-76
2023/01/26 10:49:15;;;;;;;20.52;3.97;;;;;;;5.85;100.00;102518.75;4935249;28;20046;-77
2023/01/26 10:51:45;;;;;;;21.80;2.85;;;;;;;5.89;100.00;102506.72;4924611;28;20057;-77
2023/01/26 10:54:22;;;;;;;25.38;3.88;;;;;;;5.93;100.00;102506.03;4963735;28;20062;-77
2023/01/26 10:56:54;;;;;;;23.42;3.28;;;;;;;5.96;100.00;102508.84;4967854;28;20062;-77
2023/01/26 10:59:37;;;;;;;18.98;3.95;;;;;;;5.99;100.00;102522.06;4954394;28;20055;-77
2023/01/26 11:02:11;;;;;;;18.40;4.13;;;;;;;6.05;100.00;102520.66;4948795;28;20058;-78
2023/01/26 11:04:40;;;;;;;18.05;4.38;;;;;;;6.11;100.00;102509.59;4930725;28;20058;-77
2023/01/26 11:07:25;;;;;;;18.40;3.13;;;;;;;6.16;100.00;102512.41;4917636;28;20066;-77
2023/01/26 11:09:53;;;;;;;22.27;3.28;;;;;;;6.19;100.00;102500.38;4954476;28;20054;-77
2023/01/26 11:12:24;;;;;;;17.23;2.85;;;;;;;6.22;100.00;102511.00;4938798;29;20055;-77
2023/01/26 11:15:19;;;;;;;16.92;3.20;;;;;;;6.27;100.00;102515.53;4935759;28;20043;-77
2023/01/26 11:18:02;;;;;;;19.63;4.28;;;;;;;6.33;100.00;102514.13;4942128;29;20090;-77
2023/01/26 11:20:48;;;;;;;19.92;3.58;;;;;;;6.41;100.00;102504.00;4934331;28;20050;-77
2023/01/26 11:23:37;;;;;;;14.82;3.10;;;;;;;6.45;100.00;102508.56;4935738;28;20046;-77
2023/01/26 11:26:30;;;;;;;15.48;2.33;;;;;;;6.48;100.00;102505.19;4942229;29;20111;-77
2023/01/26 11:29:28;;;;;;;16.27;2.95;;;;;;;6.46;100.00;102496.34;4943015;28;20046;-77
2023/01/26 11:32:31;;;;;;;17.17;2.90;;;;;;;6.46;100.00;102506.84;4959910;28;20057;-78
2023/01/26 11:35:27;;;;;;;21.50;2.85;;;;;;;6.47;100.00;102506.91;4936771;28;20047;-77
2023/01/26 11:38:14;;;;;;;13.80;3.00;;;;;;;6.50;100.00;102507.03;4915247;28;20527;-77
2023/01/26 11:40:50;;;;;;;16.92;2.40;;;;;;;6.48;100.00;102492.09;4960642;28;20054;-77
2023/01/26 11:43:20;;;;;;;18.85;2.80;;;;;;;6.45;100.00;102492.84;4952574;28;20924;-77
2023/01/26 11:46:00;;;;;;;13.60;2.47;;;;;;;6.44;100.00;102491.94;4933739;28;20501;-77
2023/01/26 11:48:52;;;;;;;21.00;3.65;;;;;;;6.49;100.00;102486.03;4958723;28;20288;-76
2023/01/26 11:51:35;;;;;;;16.88;3.28;;;;;;;6.52;100.00;102481.84;4942586;28;20062;-76
2023/01/26 11:55:00;;;;;;;13.73;2.42;;;;;;;6.50;100.00;102480.84;4937773;28;20416;-76
2023/01/26 11:57:42;;;;;;;15.82;3.22;;;;;;;6.55;100.00;102481.97;4881769;29;20071;-77
2023/01/26 12:00:20;;;;;;;16.80;3.15;;;;;;;6.58;100.00;102483.84;4939815;28;20058;-78
2023/01/26 12:03:18;;;;;;;11.63;2.90;;;;;;;6.58;100.00;102489.09;4935175;29;20058;-77
2023/01/26 12:05:52;;;;;;;12.85;2.80;;;;;;;6.60;100.00;102477.84;4943863;28;20063;-77
2023/01/26 12:08:28;;;;;;;14.85;2.63;;;;;;;6.63;100.00;102478.00;4911547;28;20077;-77
2023/01/26 12:11:20;;;;;;;14.18;2.90;;;;;;;6.74;100.00;102472.31;4967841;28;20073;-77
2023/01/26 12:13:58;;;;;;;22.88;3.78;;;;;;;6.82;100.00;102466.59;4964707;28;20057;-77
2023/01/26 12:16:44;;;;;;;13.88;2.63;;;;;;;6.87;100.00;102466.78;4952861;28;20043;-77
2023/01/26 12:19:24;;;;;;;12.45;2.45;;;;;;;6.89;100.00;102467.75;4969744;28;20046;-77
2023/01/26 12:21:56;;;;;;;12.52;2.83;;;;;;;6.85;100.00;102465.84;4938263;28;20050;-77
2023/01/26 12:24:35;;;;;;;14.77;2.67;;;;;;;6.85;100.00;102457.09;4931740;28;20501;-77
2023/01/26 12:27:57;;;;;;;12.52;2.38;;;;;;;6.85;100.00;102459.72;4938888;28;20063;-77